createdAt,value
2017-07-21T00:00:33.753Z,17.50
2017-07-21T00:03:02.787Z,17.50
2017-07-21T00:05:31.780Z,17.40
2017-07-21T00:08:00.752Z,17.50
2017-07-21T00:10:29.728Z,17.50
2017-07-21T00:12:58.726Z,17.40
2017-07-21T00:15:27.694Z,17.40
2017-07-21T00:17:56.680Z,17.50
2017-07-21T00:20:25.673Z,17.50
2017-07-21T00:22:54.700Z,17.60
2017-07-21T00:25:23.731Z,17.50
2017-07-21T00:27:52.737Z,17.60
2017-07-21T00:30:21.694Z,17.60
2017-07-21T00:32:50.753Z,17.50
2017-07-21T00:35:19.822Z,17.50
2017-07-21T00:37:49.099Z,17.60
2017-07-21T00:40:18.090Z,17.60
2017-07-21T00:42:47.100Z,17.50
2017-07-21T00:45:16.065Z,17.40
2017-07-21T00:47:45.065Z,17.40
2017-07-21T00:50:14.073Z,17.40
2017-07-21T00:52:43.072Z,17.40
2017-07-21T00:55:12.045Z,17.30
2017-07-21T00:57:41.023Z,17.30
2017-07-21T01:00:10.034Z,17.30
2017-07-21T01:02:39.037Z,17.30
2017-07-21T01:05:08.061Z,17.30
2017-07-21T01:07:37.010Z,17.30
2017-07-21T01:10:06.018Z,17.20
2017-07-21T01:12:35.026Z,17.20
2017-07-21T01:15:04.058Z,17.20
2017-07-21T01:17:33.065Z,17.20
2017-07-21T01:20:02.073Z,17.30
2017-07-21T01:22:31.060Z,17.30
2017-07-21T01:26:02.545Z,17.40
2017-07-21T01:28:31.496Z,17.40
2017-07-21T01:31:00.489Z,17.40
2017-07-21T01:33:29.481Z,17.40
2017-07-21T01:35:58.542Z,17.50
2017-07-21T01:38:27.543Z,17.50
2017-07-21T01:40:56.530Z,17.50
2017-07-21T01:43:25.525Z,17.60
2017-07-21T01:45:54.590Z,17.60
2017-07-21T01:48:23.623Z,17.60
2017-07-21T01:50:52.702Z,17.60
2017-07-21T01:53:21.734Z,17.60
2017-07-21T01:55:50.839Z,17.70
2017-07-21T01:58:20.086Z,17.70
2017-07-21T02:00:49.419Z,17.60
2017-07-21T02:03:18.419Z,17.60
2017-07-21T02:05:47.427Z,17.60
2017-07-21T02:08:16.473Z,17.60
2017-07-21T02:10:45.473Z,17.70
2017-07-21T02:13:14.490Z,17.70
2017-07-21T02:15:43.533Z,17.70
2017-07-21T02:18:12.672Z,17.70
2017-07-21T02:20:41.612Z,17.70
2017-07-21T02:23:10.623Z,17.70
2017-07-21T02:25:39.608Z,17.70
2017-07-21T02:28:08.602Z,17.70
2017-07-21T02:30:37.594Z,17.60
2017-07-21T02:33:06.647Z,17.50
2017-07-21T02:35:35.623Z,17.50
2017-07-21T02:38:04.614Z,17.50
2017-07-21T02:40:33.606Z,17.50
2017-07-21T02:43:02.593Z,17.40
2017-07-21T02:45:31.550Z,17.30
2017-07-21T02:48:00.522Z,17.30
2017-07-21T02:50:29.485Z,17.30
2017-07-21T02:52:58.464Z,17.30
2017-07-21T02:55:27.484Z,17.30
2017-07-21T02:57:56.425Z,17.30
2017-07-21T03:00:25.422Z,17.20
2017-07-21T03:02:54.394Z,17.10
2017-07-21T03:05:23.430Z,17.10
2017-07-21T03:07:52.390Z,17.00
2017-07-21T03:10:21.353Z,17.00
2017-07-21T03:12:50.314Z,16.80
2017-07-21T03:15:19.306Z,16.90
2017-07-21T03:19:07.859Z,16.90
2017-07-21T03:21:36.837Z,16.90
2017-07-21T03:24:05.805Z,16.90
2017-07-21T03:26:34.842Z,16.90
2017-07-21T03:29:04.148Z,17.00
2017-07-21T03:31:33.103Z,16.90
2017-07-21T03:34:02.090Z,16.90
2017-07-21T03:36:31.029Z,16.90
2017-07-21T03:39:00.000Z,16.90
2017-07-21T03:41:28.982Z,17.00
2017-07-21T03:43:57.924Z,16.90
2017-07-21T03:46:26.850Z,16.80
2017-07-21T03:48:55.852Z,16.70
2017-07-21T03:51:24.843Z,16.70
2017-07-21T03:53:53.817Z,16.80
2017-07-21T03:56:22.774Z,16.80
2017-07-21T03:58:51.757Z,16.80
2017-07-21T04:01:20.753Z,16.90
2017-07-21T04:03:49.707Z,16.90
2017-07-21T04:06:18.698Z,16.90
2017-07-21T04:08:47.705Z,16.90
2017-07-21T04:11:16.661Z,16.80
2017-07-21T04:13:45.704Z,16.90
2017-07-21T04:16:14.739Z,17.00
2017-07-21T04:18:43.710Z,17.00
2017-07-21T04:21:12.716Z,17.00
2017-07-21T04:23:41.720Z,16.90
2017-07-21T04:26:10.665Z,16.90
2017-07-21T04:28:39.615Z,16.80
2017-07-21T04:31:09.624Z,16.80
2017-07-21T04:33:38.707Z,16.90
2017-07-21T04:36:08.025Z,16.80
2017-07-21T04:38:37.118Z,16.90
2017-07-21T04:41:06.154Z,17.00
2017-07-21T04:43:35.181Z,17.20
2017-07-21T04:46:05.077Z,17.30
2017-07-21T04:48:38.973Z,17.40
2017-07-21T04:51:07.954Z,17.30
2017-07-21T04:53:36.921Z,17.30
2017-07-21T04:56:05.967Z,17.20
2017-07-21T04:58:34.979Z,17.30
2017-07-21T05:01:03.962Z,17.30
2017-07-21T05:03:32.980Z,17.20
2017-07-21T05:06:01.936Z,17.20
2017-07-21T05:08:30.919Z,17.20
2017-07-21T05:10:59.900Z,17.30
2017-07-21T05:13:29.369Z,17.70
2017-07-21T05:15:59.125Z,18.10
2017-07-21T05:18:42.586Z,18.30
2017-07-21T05:21:11.601Z,18.50
2017-07-21T05:23:40.598Z,18.80
2017-07-21T05:26:09.603Z,19.30
2017-07-21T05:28:38.646Z,20.10
2017-07-21T05:31:07.726Z,20.90
2017-07-21T05:33:36.971Z,21.70
2017-07-21T05:36:06.224Z,22.30
2017-07-21T05:38:38.024Z,22.10
2017-07-21T05:41:07.023Z,21.50
2017-07-21T05:43:36.062Z,21.70
2017-07-21T05:46:05.090Z,22.80
2017-07-21T05:48:34.057Z,23.80
2017-07-21T05:51:03.045Z,24.00
2017-07-21T05:54:34.493Z,24.60
2017-07-21T05:57:03.486Z,24.90
2017-07-21T05:59:32.454Z,25.80
2017-07-21T06:03:03.734Z,26.00
2017-07-21T06:06:52.313Z,26.10
2017-07-21T06:09:24.354Z,27.40
2017-07-21T06:11:53.382Z,27.10
2017-07-21T06:14:22.369Z,25.10
2017-07-21T06:16:51.342Z,24.20
2017-07-21T06:19:20.325Z,25.50
2017-07-21T06:21:49.249Z,27.00
2017-07-21T06:24:18.301Z,28.40
2017-07-21T06:26:47.361Z,29.40
2017-07-21T06:29:16.358Z,28.20
2017-07-21T06:31:45.326Z,27.10
2017-07-21T06:34:14.281Z,28.00
2017-07-21T06:36:43.211Z,27.30
2017-07-21T06:39:12.537Z,26.80
2017-07-21T06:41:41.534Z,27.10
2017-07-21T06:44:41.053Z,27.10
2017-07-21T06:47:10.074Z,27.50
2017-07-21T06:49:39.046Z,28.20
2017-07-21T06:52:08.026Z,27.20
2017-07-21T06:54:37.023Z,25.60
2017-07-21T06:57:06.367Z,24.40
2017-07-21T06:59:35.379Z,23.60
2017-07-21T07:02:04.500Z,22.90
2017-07-21T07:05:04.060Z,22.40
2017-07-21T07:07:32.982Z,21.60
2017-07-21T07:10:01.970Z,21.30
2017-07-21T07:12:31.025Z,21.20
2017-07-21T07:14:59.982Z,21.60
2017-07-21T07:17:28.977Z,23.10
2017-07-21T07:19:58.037Z,24.90
2017-07-21T07:22:27.032Z,25.10
2017-07-21T07:24:56.072Z,25.10
2017-07-21T07:27:25.112Z,25.50
2017-07-21T07:29:54.138Z,26.20
2017-07-21T07:32:23.081Z,27.50
2017-07-21T07:34:52.132Z,27.60
2017-07-21T07:37:21.163Z,27.70
2017-07-21T07:39:50.137Z,28.00
2017-07-21T07:42:19.223Z,26.60
2017-07-21T07:44:48.344Z,25.40
2017-07-21T07:47:17.445Z,24.90
2017-07-21T07:49:46.505Z,24.60
2017-07-21T07:52:15.498Z,24.30
2017-07-21T07:54:44.682Z,24.10
2017-07-21T07:57:13.661Z,24.00
2017-07-21T07:59:43.067Z,23.60
2017-07-21T08:02:12.083Z,24.00
2017-07-21T08:04:41.161Z,24.60
2017-07-21T08:07:10.142Z,25.80
2017-07-21T08:09:39.133Z,27.60
2017-07-21T08:12:08.194Z,28.50
2017-07-21T08:14:37.275Z,29.50
2017-07-21T08:17:06.600Z,30.00
2017-07-21T08:19:35.554Z,30.00
2017-07-21T08:22:04.566Z,30.50
2017-07-21T08:24:33.544Z,31.10
2017-07-21T08:27:02.530Z,31.70
2017-07-21T08:29:31.532Z,32.50
2017-07-21T08:32:00.466Z,33.20
2017-07-21T08:34:29.513Z,32.10
2017-07-21T08:36:58.525Z,31.70
2017-07-21T08:39:27.539Z,30.10
2017-07-21T08:42:26.913Z,28.10
2017-07-21T08:44:55.893Z,27.20
2017-07-21T08:47:24.892Z,27.40
2017-07-21T08:49:53.893Z,29.60
2017-07-21T08:52:22.875Z,31.00
2017-07-21T08:54:51.869Z,32.30
2017-07-21T08:57:20.939Z,33.40
2017-07-21T08:59:49.926Z,33.30
2017-07-21T09:02:19.513Z,32.80
2017-07-21T09:04:48.488Z,31.20
2017-07-21T09:07:17.460Z,31.40
2017-07-21T09:09:46.533Z,32.00
2017-07-21T09:12:15.599Z,33.00
2017-07-21T09:14:44.574Z,33.80
2017-07-21T09:17:13.601Z,34.20
2017-07-21T09:19:43.507Z,34.40
2017-07-21T09:22:12.499Z,33.60
2017-07-21T09:24:41.814Z,33.50
2017-07-21T09:27:10.889Z,33.60
2017-07-21T09:29:39.847Z,32.70
2017-07-21T09:32:09.128Z,33.50
2017-07-21T09:34:38.161Z,34.20
2017-07-21T09:37:07.152Z,35.20
2017-07-21T09:39:36.202Z,36.10
2017-07-21T09:42:05.176Z,37.10
2017-07-21T09:44:34.216Z,36.20
2017-07-21T09:47:03.206Z,34.40
2017-07-21T09:49:32.210Z,33.70
2017-07-21T09:52:01.201Z,33.50
2017-07-21T09:54:30.221Z,34.80
2017-07-21T09:56:59.264Z,36.00
2017-07-21T10:00:30.858Z,36.30
2017-07-21T10:02:59.825Z,35.40
2017-07-21T10:05:28.876Z,33.30
2017-07-21T10:07:57.896Z,32.90
2017-07-21T10:10:30.476Z,33.70
2017-07-21T10:12:59.793Z,35.20
2017-07-21T10:15:28.836Z,35.80
2017-07-21T10:17:57.833Z,35.70
2017-07-21T10:20:26.793Z,34.80
2017-07-21T10:22:55.911Z,35.50
2017-07-21T10:25:24.891Z,34.40
2017-07-21T10:27:54.106Z,35.00
2017-07-21T10:30:23.095Z,34.00
2017-07-21T10:32:52.101Z,31.10
2017-07-21T10:35:21.147Z,30.70
2017-07-21T10:37:50.166Z,32.10
2017-07-21T10:40:19.526Z,32.80
2017-07-21T10:42:48.573Z,33.00
2017-07-21T10:45:17.585Z,33.60
2017-07-21T10:47:46.607Z,34.10
2017-07-21T10:50:15.575Z,34.80
2017-07-21T10:52:44.584Z,35.40
2017-07-21T10:55:13.642Z,35.00
2017-07-21T10:57:42.630Z,35.40
2017-07-21T11:00:11.623Z,35.00
2017-07-21T11:02:40.648Z,33.80
2017-07-21T11:05:09.642Z,32.50
2017-07-21T11:07:38.730Z,31.90
2017-07-21T11:10:07.674Z,32.60
2017-07-21T11:12:36.670Z,32.60
2017-07-21T11:15:05.752Z,31.30
2017-07-21T11:17:34.742Z,31.00
2017-07-21T11:20:03.815Z,30.70
2017-07-21T11:22:32.798Z,29.40
2017-07-21T11:25:01.830Z,28.90
2017-07-21T11:27:30.853Z,28.60
2017-07-21T11:30:00.015Z,29.00
2017-07-21T11:32:29.079Z,30.40
2017-07-21T11:34:58.482Z,31.70
2017-07-21T11:37:27.594Z,32.20
2017-07-21T11:39:56.610Z,31.60
2017-07-21T11:42:25.613Z,30.70
2017-07-21T11:44:54.610Z,30.70
2017-07-21T11:47:23.608Z,31.00
2017-07-21T11:49:52.590Z,31.00
2017-07-21T11:52:21.583Z,30.90
2017-07-21T11:54:50.618Z,31.70
2017-07-21T11:57:19.651Z,31.80
2017-07-21T11:59:48.629Z,32.00
2017-07-21T12:02:17.646Z,31.80
2017-07-21T12:04:46.693Z,31.20
2017-07-21T12:07:15.674Z,30.10
2017-07-21T12:09:44.652Z,29.20
2017-07-21T12:12:13.677Z,28.40
2017-07-21T12:14:42.688Z,28.70
2017-07-21T12:17:12.006Z,28.90
2017-07-21T12:19:40.988Z,28.30
2017-07-21T12:22:09.998Z,28.30
2017-07-21T12:24:38.996Z,28.60
2017-07-21T12:27:07.984Z,28.20
2017-07-21T12:29:36.996Z,28.50
2017-07-21T12:32:06.294Z,29.20
2017-07-21T12:34:38.406Z,30.00
2017-07-21T12:37:08.367Z,30.10
2017-07-21T12:39:37.498Z,29.60
2017-07-21T12:42:06.544Z,28.90
2017-07-21T12:44:36.945Z,28.10
2017-07-21T12:47:05.918Z,27.70
2017-07-21T12:49:35.129Z,27.60
2017-07-21T12:52:04.205Z,28.00
2017-07-21T12:54:33.223Z,28.70
2017-07-21T12:57:02.276Z,29.30
2017-07-21T12:59:31.351Z,29.20
2017-07-21T13:02:00.398Z,28.30
2017-07-21T13:04:29.439Z,27.70
2017-07-21T13:06:58.449Z,27.00
2017-07-21T13:09:27.446Z,26.60
2017-07-21T13:11:56.435Z,26.70
2017-07-21T13:14:25.383Z,26.50
2017-07-21T13:16:54.385Z,26.30
2017-07-21T13:19:23.458Z,25.90
2017-07-21T13:21:52.464Z,26.00
2017-07-21T13:24:21.469Z,26.60
2017-07-21T13:26:50.477Z,27.30
2017-07-21T13:29:19.546Z,27.70
2017-07-21T13:31:48.585Z,28.10
2017-07-21T13:34:17.702Z,27.40
2017-07-21T13:36:46.717Z,27.50
2017-07-21T13:39:15.699Z,27.30
2017-07-21T13:41:44.684Z,27.60
2017-07-21T13:44:20.332Z,28.00
2017-07-21T13:46:49.390Z,28.40
2017-07-21T13:49:18.482Z,28.60
2017-07-21T13:51:47.630Z,28.40
2017-07-21T13:54:16.908Z,28.40
2017-07-21T13:56:46.051Z,28.50
2017-07-21T13:59:15.112Z,28.50
2017-07-21T14:01:44.156Z,28.60
2017-07-21T14:04:13.382Z,28.60
2017-07-21T14:06:42.740Z,28.40
2017-07-21T14:09:11.974Z,28.20
2017-07-21T14:11:41.068Z,27.80
2017-07-21T14:14:10.258Z,27.80
2017-07-21T14:16:39.449Z,27.90
2017-07-21T14:19:08.550Z,27.70
2017-07-21T14:21:37.683Z,27.30
2017-07-21T14:24:06.698Z,27.00
2017-07-21T14:26:35.935Z,27.10
2017-07-21T14:29:05.030Z,27.30
2017-07-21T14:31:34.111Z,27.10
2017-07-21T14:34:03.208Z,26.90
2017-07-21T14:36:32.302Z,26.80
2017-07-21T14:39:01.352Z,26.60
2017-07-21T14:41:30.427Z,26.70
2017-07-21T14:43:59.526Z,26.50
2017-07-21T14:46:28.580Z,26.20
2017-07-21T14:48:57.663Z,26.00
2017-07-21T14:51:27.089Z,26.20
2017-07-21T14:53:56.141Z,26.10
2017-07-21T14:56:25.202Z,26.10
2017-07-21T14:58:54.221Z,26.20
2017-07-21T15:01:23.406Z,25.80
2017-07-21T15:03:52.529Z,25.70
2017-07-21T15:06:21.509Z,25.70
2017-07-21T15:08:50.703Z,25.50
2017-07-21T15:11:19.776Z,25.20
2017-07-21T15:13:48.846Z,25.00
2017-07-21T15:16:21.918Z,24.90
2017-07-21T15:18:50.942Z,24.80
2017-07-21T15:21:20.006Z,24.80
2017-07-21T15:23:49.072Z,24.80
2017-07-21T15:26:18.183Z,24.80
2017-07-21T15:28:47.225Z,24.90
2017-07-21T15:31:16.214Z,25.10
2017-07-21T15:33:45.391Z,25.30
2017-07-21T15:36:14.417Z,25.50
2017-07-21T15:38:43.455Z,25.60
2017-07-21T15:41:12.521Z,25.50
2017-07-21T15:43:41.538Z,25.60
2017-07-21T15:46:10.686Z,25.80
2017-07-21T15:48:39.764Z,25.90
2017-07-21T15:51:08.932Z,25.80
2017-07-21T15:53:39.300Z,25.90
2017-07-21T15:56:08.399Z,26.10
2017-07-21T15:58:37.498Z,26.10
2017-07-21T16:01:06.648Z,25.90
2017-07-21T16:03:35.709Z,25.90
2017-07-21T16:06:04.735Z,25.80
2017-07-21T16:08:33.805Z,25.60
2017-07-21T16:11:02.859Z,25.70
2017-07-21T16:13:31.899Z,25.90
2017-07-21T16:16:01.273Z,26.00
2017-07-21T16:18:30.409Z,26.00
2017-07-21T16:20:59.483Z,26.00
2017-07-21T16:23:28.542Z,26.00
2017-07-21T16:26:27.747Z,25.80
2017-07-21T16:28:56.759Z,25.80
2017-07-21T16:31:25.743Z,25.30
2017-07-21T16:33:54.725Z,25.40
2017-07-21T16:36:23.786Z,25.50
2017-07-21T16:38:52.817Z,25.50
2017-07-21T16:41:21.813Z,25.70
2017-07-21T16:43:50.890Z,25.70
2017-07-21T16:46:19.963Z,25.50
2017-07-21T16:48:49.021Z,25.20
2017-07-21T16:51:18.125Z,25.00
2017-07-21T16:53:53.661Z,25.10
2017-07-21T16:56:22.647Z,25.00
2017-07-21T16:58:51.648Z,25.00
2017-07-21T17:01:20.992Z,25.00
2017-07-21T17:03:50.060Z,25.00
2017-07-21T17:06:19.066Z,25.00
2017-07-21T17:11:26.316Z,24.90
2017-07-21T17:13:55.692Z,24.90
2017-07-21T17:16:24.651Z,25.00
2017-07-21T17:18:53.659Z,25.00
2017-07-21T17:21:22.674Z,25.10
2017-07-21T17:23:51.654Z,25.10
2017-07-21T17:26:20.706Z,25.00
2017-07-21T17:28:49.886Z,25.00
2017-07-21T17:31:18.922Z,24.90
2017-07-21T17:33:47.885Z,24.90
2017-07-21T17:36:47.411Z,24.80
2017-07-21T17:39:16.469Z,24.70
2017-07-21T17:41:45.444Z,24.60
2017-07-21T17:44:14.451Z,24.60
2017-07-21T17:46:43.489Z,24.60
2017-07-21T17:49:12.570Z,24.50
2017-07-21T17:51:41.564Z,24.40
2017-07-21T17:54:11.074Z,24.30
2017-07-21T17:56:40.227Z,24.30
2017-07-21T17:59:09.361Z,24.10
2017-07-21T18:01:38.443Z,24.10
2017-07-21T18:04:07.426Z,24.10
2017-07-21T18:06:36.425Z,24.00
2017-07-21T18:09:05.637Z,23.90
2017-07-21T18:11:34.669Z,23.90
2017-07-21T18:14:03.781Z,23.70
2017-07-21T18:16:32.872Z,23.50
2017-07-21T18:19:01.949Z,23.50
2017-07-21T18:21:31.050Z,23.40
2017-07-21T18:24:00.085Z,23.30
2017-07-21T18:26:29.182Z,23.10
2017-07-21T18:28:58.193Z,23.00
2017-07-21T18:31:27.305Z,23.00
2017-07-21T18:33:56.358Z,22.80
2017-07-21T18:36:25.402Z,22.70
2017-07-21T18:38:54.398Z,22.60
2017-07-21T18:41:23.533Z,22.60
2017-07-21T18:43:52.620Z,22.40
2017-07-21T18:46:21.746Z,22.30
2017-07-21T18:48:50.796Z,22.20
2017-07-21T18:53:57.933Z,22.00
2017-07-21T18:56:27.020Z,22.00
2017-07-21T18:58:56.092Z,21.90
2017-07-21T19:01:25.393Z,21.90
2017-07-21T19:03:54.429Z,21.80
2017-07-21T19:06:23.481Z,21.70
2017-07-21T19:08:52.540Z,21.70
2017-07-21T19:11:21.663Z,21.60
2017-07-21T19:13:50.705Z,21.30
2017-07-21T19:16:19.735Z,21.20
2017-07-21T19:18:48.787Z,21.20
2017-07-21T19:21:17.910Z,20.90
2017-07-21T19:23:46.928Z,20.80
2017-07-21T19:26:16.009Z,20.70
2017-07-21T19:28:45.062Z,20.70
2017-07-21T19:31:14.125Z,20.60
2017-07-21T19:34:13.832Z,20.40
2017-07-21T19:36:42.849Z,20.30
2017-07-21T19:39:12.061Z,20.30
2017-07-21T19:41:41.179Z,20.30
2017-07-21T19:44:10.194Z,20.20
2017-07-21T19:46:39.305Z,20.20
2017-07-21T19:49:08.406Z,20.30
2017-07-21T19:51:37.467Z,20.30
2017-07-21T19:54:06.595Z,20.30
2017-07-21T19:56:35.630Z,20.20
2017-07-21T19:59:04.701Z,20.10
2017-07-21T20:01:34.064Z,20.00
2017-07-21T20:04:03.099Z,20.00
2017-07-21T20:06:32.251Z,19.90
2017-07-21T20:09:01.314Z,19.90
2017-07-21T20:11:30.363Z,20.00
2017-07-21T20:13:59.466Z,19.90
2017-07-21T20:16:28.622Z,19.70
2017-07-21T20:18:57.669Z,19.60
2017-07-21T20:21:26.747Z,19.50
2017-07-21T20:23:56.182Z,19.40
2017-07-21T20:26:25.387Z,19.40
2017-07-21T20:28:54.459Z,19.40
2017-07-21T20:31:23.666Z,19.40
2017-07-21T20:33:52.936Z,19.40
2017-07-21T20:36:22.069Z,19.40
2017-07-21T20:38:51.268Z,19.20
2017-07-21T20:41:20.488Z,19.10
2017-07-21T20:43:49.668Z,19.00
2017-07-21T20:46:18.718Z,19.00
2017-07-21T20:48:47.688Z,18.90
2017-07-21T20:51:16.753Z,18.90
2017-07-21T20:53:45.776Z,18.90
2017-07-21T20:56:14.842Z,19.00
2017-07-21T20:58:44.162Z,19.00
2017-07-21T21:01:13.214Z,19.20
2017-07-21T21:03:42.219Z,19.30
2017-07-21T21:06:11.240Z,19.30
2017-07-21T21:08:40.269Z,19.30
2017-07-21T21:11:09.351Z,19.20
2017-07-21T21:13:38.439Z,19.30
2017-07-21T21:16:07.427Z,19.30
2017-07-21T21:18:36.435Z,19.20
2017-07-21T21:21:05.416Z,19.20
2017-07-21T21:23:34.393Z,19.10
2017-07-21T21:26:03.421Z,19.10
2017-07-21T21:28:32.396Z,19.00
2017-07-21T21:31:01.418Z,18.90
2017-07-21T21:33:30.602Z,18.80
2017-07-21T21:35:59.641Z,18.80
2017-07-21T21:38:28.699Z,18.70
2017-07-21T21:43:35.895Z,18.70
2017-07-21T21:46:04.913Z,18.60
2017-07-21T21:48:33.887Z,18.60
2017-07-21T21:51:03.214Z,18.50
2017-07-21T21:53:32.297Z,18.60
2017-07-21T21:56:01.413Z,18.60
2017-07-21T21:58:30.441Z,18.70
2017-07-21T22:00:59.421Z,18.70
2017-07-21T22:03:28.429Z,18.80
2017-07-21T22:05:57.447Z,18.80
2017-07-21T22:08:26.458Z,18.80
2017-07-21T22:10:55.520Z,18.90
2017-07-21T22:13:24.500Z,18.90
2017-07-21T22:15:56.617Z,18.90
2017-07-21T22:18:25.593Z,18.90
2017-07-21T22:20:54.516Z,18.80
2017-07-21T22:23:23.587Z,18.80
2017-07-21T22:25:52.607Z,18.90
2017-07-21T22:28:21.691Z,18.90
2017-07-21T22:30:50.697Z,18.90
2017-07-21T22:33:19.826Z,19.00
2017-07-21T22:35:48.879Z,18.90
2017-07-21T22:38:17.899Z,18.90
2017-07-21T22:40:46.839Z,18.80
2017-07-21T22:43:16.082Z,18.70
2017-07-21T22:45:45.099Z,18.60
2017-07-21T22:48:14.190Z,18.60
2017-07-21T22:50:43.174Z,18.60
2017-07-21T22:53:12.168Z,18.60
2017-07-21T22:55:41.253Z,18.50
2017-07-21T22:58:10.346Z,18.40
2017-07-21T23:00:39.326Z,18.50
2017-07-21T23:03:08.292Z,18.60
2017-07-21T23:05:37.273Z,18.50
2017-07-21T23:08:06.293Z,18.50
2017-07-21T23:10:35.262Z,18.40
2017-07-21T23:13:04.238Z,18.40
2017-07-21T23:15:33.201Z,18.40
2017-07-21T23:18:02.441Z,18.40
2017-07-21T23:20:31.399Z,18.30
2017-07-21T23:23:00.330Z,18.30
2017-07-21T23:25:29.294Z,18.30
2017-07-21T23:27:58.275Z,18.30
2017-07-21T23:30:27.523Z,18.30
2017-07-21T23:32:56.591Z,18.30
2017-07-21T23:35:25.544Z,18.30
2017-07-21T23:37:54.529Z,18.30
2017-07-21T23:40:23.479Z,18.20
2017-07-21T23:42:52.485Z,18.30
2017-07-21T23:47:59.566Z,18.20
2017-07-21T23:50:28.585Z,18.20
2017-07-21T23:52:57.569Z,18.20
2017-07-21T23:55:26.539Z,18.20
2017-07-21T23:57:55.512Z,18.20
